Time;durP1;ratioP1;P1;durP2;ratioP2;P2;SDS_P1;SDS_P2;PMS_P1;PMS_P2;Temp;Humidity;BMP_temperature;BMP_pressure;BME280_temperature;BME280_humidity;BME280_pressure;Samples;Min_cycle;Max_cycle;Signal;HPM_P1;HPM_P2
2022/03/10 00:00:58;;;;;;;32.23;16.30;;;;;;;;;;5075485;28;20447;-68
2022/03/10 00:03:27;;;;;;;22.00;11.77;;;;;;;;;;5075206;28;20459;-68
2022/03/10 00:05:54;;;;;;;15.20;8.40;;;;;;;;;;5075368;28;20447;-68
2022/03/10 00:08:21;;;;;;;28.87;9.70;;;;;;;;;;5075618;28;20474;-68
2022/03/10 00:10:48;;;;;;;15.00;7.83;;;;;;;;;;5075730;28;20996;-68
2022/03/10 00:13:16;;;;;;;13.40;8.17;;;;;;;;;;5076177;28;20447;-68
2022/03/10 00:15:43;;;;;;;24.33;9.07;;;;;;;;;;5074971;28;20527;-68
2022/03/10 00:18:10;;;;;;;16.90;9.97;;;;;;;;;;5075537;28;20476;-68
2022/03/10 00:20:39;;;;;;;12.60;7.80;;;;;;;;;;5075644;28;20452;-68
2022/03/10 00:23:06;;;;;;;12.70;6.70;;;;;;;;;;5075635;28;20455;-68
2022/03/10 00:25:34;;;;;;;17.90;10.30;;;;;;;;;;5075950;28;20855;-68
2022/03/10 00:28:01;;;;;;;11.37;7.63;;;;;;;;;;5075719;28;20507;-68
2022/03/10 00:30:28;;;;;;;41.43;18.63;;;;;;;;;;5075701;28;20451;-68
2022/03/10 00:32:55;;;;;;;23.20;10.97;;;;;;;;;;5075630;28;20850;-68
2022/03/10 00:35:23;;;;;;;24.60;11.10;;;;;;;;;;5075273;28;20451;-68
2022/03/10 00:37:52;;;;;;;18.93;10.87;;;;;;;;;;5075399;28;20467;-68
2022/03/10 00:40:20;;;;;;;18.90;9.60;;;;;;;;;;5075153;28;20464;-68
2022/03/10 00:42:47;;;;;;;13.47;9.70;;;;;;;;;;5074823;28;20479;-68
2022/03/10 00:45:15;;;;;;;14.70;8.80;;;;;;;;;;5074944;28;20455;-68
2022/03/10 00:47:42;;;;;;;15.47;9.10;;;;;;;;;;5074860;28;20484;-68
2022/03/10 00:50:10;;;;;;;31.43;10.83;;;;;;;;;;5075146;28;20456;-68
2022/03/10 00:52:40;;;;;;;20.27;12.10;;;;;;;;;;5075216;28;20460;-69
2022/03/10 00:55:10;;;;;;;14.67;9.47;;;;;;;;;;5074478;28;20868;-68
2022/03/10 00:57:37;;;;;;;25.30;11.83;;;;;;;;;;5075160;28;20502;-68
2022/03/10 01:00:05;;;;;;;23.23;12.10;;;;;;;;;;5074968;28;20797;-68
2022/03/10 01:02:32;;;;;;;22.80;9.90;;;;;;;;;;5073993;28;20452;-70
2022/03/10 01:04:59;;;;;;;17.83;11.20;;;;;;;;;;5074956;28;20861;-68
2022/03/10 01:07:26;;;;;;;21.03;9.97;;;;;;;;;;5074732;28;20467;-68
2022/03/10 01:09:53;;;;;;;16.83;9.90;;;;;;;;;;5074939;28;20451;-68
2022/03/10 01:12:22;;;;;;;20.50;10.37;;;;;;;;;;5074581;28;20443;-68
2022/03/10 01:14:49;;;;;;;16.57;9.73;;;;;;;;;;5074176;28;20813;-68
2022/03/10 01:17:16;;;;;;;12.87;7.83;;;;;;;;;;5074318;28;20502;-68
2022/03/10 01:19:43;;;;;;;15.77;8.53;;;;;;;;;;5074194;28;20795;-68
2022/03/10 01:22:10;;;;;;;15.83;8.40;;;;;;;;;;5074261;28;20451;-68
2022/03/10 01:24:37;;;;;;;13.63;8.13;;;;;;;;;;5073581;28;20448;-68
2022/03/10 01:27:05;;;;;;;13.40;7.30;;;;;;;;;;5073794;28;21064;-68
2022/03/10 01:29:33;;;;;;;14.37;9.10;;;;;;;;;;5073808;28;20462;-68
2022/03/10 01:32:00;;;;;;;18.60;10.90;;;;;;;;;;5075530;28;20447;-68
2022/03/10 01:34:27;;;;;;;20.37;10.37;;;;;;;;;;5077519;28;20454;-68
2022/03/10 01:36:54;;;;;;;15.17;10.40;;;;;;;;;;5077657;28;20502;-68
2022/03/10 01:39:22;;;;;;;17.73;8.83;;;;;;;;;;5077819;28;20826;-68
2022/03/10 01:41:49;;;;;;;15.13;7.97;;;;;;;;;;5077556;28;20825;-68
2022/03/10 01:44:20;;;;;;;21.13;8.90;;;;;;;;;;5077400;28;20458;-68
2022/03/10 01:46:49;;;;;;;20.10;8.93;;;;;;;;;;5077716;28;20460;-68
2022/03/10 01:49:16;;;;;;;14.87;6.93;;;;;;;;;;5078222;28;20463;-68
2022/03/10 01:51:43;;;;;;;15.30;9.63;;;;;;;;;;5078091;28;20460;-68
2022/03/10 01:54:11;;;;;;;20.53;8.57;;;;;;;;;;5078085;28;20451;-68
2022/03/10 01:56:39;;;;;;;13.43;9.00;;;;;;;;;;5077637;28;20495;-68
2022/03/10 01:59:06;;;;;;;17.00;9.10;;;;;;;;;;5077408;28;20451;-69
2022/03/10 02:01:35;;;;;;;12.20;8.20;;;;;;;;;;5077082;28;20494;-68
2022/03/10 02:04:03;;;;;;;19.10;10.27;;;;;;;;;;5076513;28;20447;-69
2022/03/10 02:06:30;;;;;;;17.53;9.70;;;;;;;;;;5077094;28;20447;-68
2022/03/10 02:11:43;;;;;;;11.30;7.47;;;;;;;;;;5077218;28;20865;-68
2022/03/10 02:17:21;;;;;;;10.37;6.97;;;;;;;;;;5015830;28;20485;-68
2022/03/10 02:19:50;;;;;;;15.87;8.80;;;;;;;;;;5015288;28;20825;-69
2022/03/10 02:22:21;;;;;;;12.67;7.93;;;;;;;;;;5047841;28;21015;-68
2022/03/10 02:24:48;;;;;;;10.90;7.00;;;;;;;;;;5076661;28;20447;-69
2022/03/10 02:27:16;;;;;;;14.93;8.10;;;;;;;;;;5076940;28;20460;-68
2022/03/10 02:29:44;;;;;;;15.50;7.07;;;;;;;;;;5077039;28;20525;-68
2022/03/10 02:32:11;;;;;;;15.13;8.63;;;;;;;;;;5077109;28;20936;-68
2022/03/10 02:34:38;;;;;;;14.80;8.47;;;;;;;;;;5076412;28;20814;-68
2022/03/10 02:37:05;;;;;;;17.00;8.93;;;;;;;;;;5077013;28;20491;-68
2022/03/10 02:39:34;;;;;;;24.20;10.10;;;;;;;;;;5077097;28;20456;-68
2022/03/10 02:42:02;;;;;;;20.83;10.70;;;;;;;;;;5076646;28;20552;-68
2022/03/10 02:44:29;;;;;;;13.20;8.63;;;;;;;;;;5076333;28;20546;-68
2022/03/10 02:46:56;;;;;;;19.33;8.60;;;;;;;;;;5076260;28;20478;-68
2022/03/10 02:49:24;;;;;;;14.27;8.30;;;;;;;;;;5076599;28;20474;-68
2022/03/10 02:51:51;;;;;;;17.00;6.87;;;;;;;;;;5076384;28;20455;-68
2022/03/10 02:54:18;;;;;;;16.27;8.53;;;;;;;;;;5076406;28;20860;-68
2022/03/10 02:56:47;;;;;;;12.80;6.90;;;;;;;;;;5075763;28;20502;-68
2022/03/10 02:59:14;;;;;;;10.80;7.93;;;;;;;;;;5076272;28;20567;-68
2022/03/10 03:01:41;;;;;;;14.53;7.47;;;;;;;;;;5076247;28;20448;-68
2022/03/10 03:04:08;;;;;;;13.63;6.57;;;;;;;;;;5076112;28;20817;-68
2022/03/10 03:06:35;;;;;;;15.23;8.10;;;;;;;;;;5076052;28;20967;-68
2022/03/10 03:09:02;;;;;;;12.43;8.80;;;;;;;;;;5076059;28;20953;-68
2022/03/10 03:11:29;;;;;;;20.03;10.60;;;;;;;;;;5076090;28;20925;-68
2022/03/10 03:13:58;;;;;;;16.07;7.87;;;;;;;;;;5075722;28;20444;-68
2022/03/10 03:16:25;;;;;;;16.43;8.23;;;;;;;;;;5075779;28;20462;-68
2022/03/10 03:18:52;;;;;;;13.47;7.60;;;;;;;;;;5076004;28;20541;-68
2022/03/10 03:21:19;;;;;;;18.50;9.20;;;;;;;;;;5075905;28;20451;-68
2022/03/10 03:23:46;;;;;;;17.67;8.80;;;;;;;;;;5075750;28;20462;-69
2022/03/10 03:26:14;;;;;;;9.73;5.37;;;;;;;;;;5075471;28;20451;-68
2022/03/10 03:28:41;;;;;;;17.40;7.67;;;;;;;;;;5075336;28;20475;-68
2022/03/10 03:31:10;;;;;;;11.93;7.70;;;;;;;;;;5075302;28;20470;-68
2022/03/10 03:33:37;;;;;;;12.53;7.67;;;;;;;;;;5075059;28;20459;-68
2022/03/10 03:36:04;;;;;;;14.47;7.30;;;;;;;;;;5075564;28;20963;-68
2022/03/10 03:38:32;;;;;;;12.70;7.63;;;;;;;;;;5075233;28;20494;-68
2022/03/10 03:40:59;;;;;;;15.80;8.90;;;;;;;;;;5075445;28;20455;-68
2022/03/10 03:43:26;;;;;;;20.43;12.30;;;;;;;;;;5075424;28;20456;-69
2022/03/10 03:45:55;;;;;;;20.83;9.17;;;;;;;;;;5075384;28;20455;-68
2022/03/10 03:48:24;;;;;;;12.57;8.83;;;;;;;;;;5075231;28;21019;-68
2022/03/10 03:50:51;;;;;;;14.40;7.20;;;;;;;;;;5076075;28;20458;-68
2022/03/10 03:53:18;;;;;;;20.67;11.47;;;;;;;;;;5075531;28;20995;-68
2022/03/10 03:55:45;;;;;;;19.40;9.33;;;;;;;;;;5074837;28;20462;-68
2022/03/10 03:58:12;;;;;;;16.77;9.03;;;;;;;;;;5075507;28;20500;-68
2022/03/10 04:00:39;;;;;;;17.10;8.53;;;;;;;;;;5075452;28;20456;-68
2022/03/10 04:03:08;;;;;;;15.77;10.20;;;;;;;;;;5074860;28;20949;-68
2022/03/10 04:05:37;;;;;;;14.80;9.10;;;;;;;;;;5075196;28;20459;-68
2022/03/10 04:08:04;;;;;;;18.23;10.27;;;;;;;;;;5075478;28;20459;-68
2022/03/10 04:10:31;;;;;;;15.83;9.70;;;;;;;;;;5075350;28;20451;-68
2022/03/10 04:12:58;;;;;;;27.57;12.77;;;;;;;;;;5075148;28;20451;-68
2022/03/10 04:15:26;;;;;;;13.00;7.80;;;;;;;;;;5074621;28;20462;-68
2022/03/10 04:17:53;;;;;;;21.40;10.37;;;;;;;;;;5074709;28;21014;-68
2022/03/10 04:20:20;;;;;;;15.63;9.13;;;;;;;;;;5074588;28;20447;-68
2022/03/10 04:22:48;;;;;;;26.30;9.07;;;;;;;;;;5074765;28;20816;-68
2022/03/10 04:25:16;;;;;;;17.20;9.90;;;;;;;;;;5074028;28;20462;-68
2022/03/10 04:27:43;;;;;;;22.03;8.63;;;;;;;;;;5074773;28;20478;-68
2022/03/10 04:30:11;;;;;;;14.73;7.97;;;;;;;;;;5074809;28;20547;-68
2022/03/10 04:32:44;;;;;;;13.30;8.60;;;;;;;;;;5074664;28;20464;-68
2022/03/10 04:35:12;;;;;;;15.47;8.37;;;;;;;;;;5074792;28;20521;-68
2022/03/10 04:37:39;;;;;;;16.50;9.27;;;;;;;;;;5074919;28;20566;-69
2022/03/10 04:40:09;;;;;;;14.10;8.17;;;;;;;;;;5074900;28;20447;-68
2022/03/10 04:42:37;;;;;;;15.50;8.33;;;;;;;;;;5074636;28;20505;-68
2022/03/10 04:45:05;;;;;;;18.13;8.90;;;;;;;;;;5074480;28;20451;-68
2022/03/10 04:47:32;;;;;;;21.33;10.00;;;;;;;;;;5074318;28;20487;-68
2022/03/10 04:49:59;;;;;;;14.50;10.10;;;;;;;;;;5074374;28;20835;-68
2022/03/10 04:52:26;;;;;;;13.07;8.13;;;;;;;;;;5074078;28;20463;-68
2022/03/10 04:54:53;;;;;;;24.40;10.00;;;;;;;;;;5074362;28;20454;-68
2022/03/10 04:57:22;;;;;;;18.80;8.70;;;;;;;;;;5074212;28;20491;-68
2022/03/10 04:59:49;;;;;;;13.40;8.00;;;;;;;;;;5074777;28;20458;-68
2022/03/10 05:02:16;;;;;;;17.60;9.13;;;;;;;;;;5074708;28;20859;-68
2022/03/10 05:04:43;;;;;;;15.47;7.87;;;;;;;;;;5073499;28;20452;-68
2022/03/10 05:07:11;;;;;;;14.77;8.40;;;;;;;;;;5078597;28;20961;-68
2022/03/10 05:09:38;;;;;;;17.17;9.60;;;;;;;;;;5078300;28;20448;-68
2022/03/10 05:12:06;;;;;;;18.47;10.43;;;;;;;;;;5078043;28;20447;-68
2022/03/10 05:14:35;;;;;;;13.87;9.77;;;;;;;;;;5077747;28;20538;-68
2022/03/10 05:17:02;;;;;;;25.07;12.40;;;;;;;;;;5077307;28;20490;-68
2022/03/10 05:19:29;;;;;;;15.33;9.90;;;;;;;;;;5077715;28;20850;-68
2022/03/10 05:21:56;;;;;;;21.53;11.87;;;;;;;;;;5077559;28;20451;-68
2022/03/10 05:24:24;;;;;;;19.10;11.67;;;;;;;;;;5077433;28;20447;-68
2022/03/10 05:26:51;;;;;;;24.23;14.90;;;;;;;;;;5077548;28;20463;-68
2022/03/10 05:29:18;;;;;;;21.47;12.30;;;;;;;;;;5077629;28;20443;-68
2022/03/10 05:31:46;;;;;;;24.43;12.40;;;;;;;;;;5077424;28;20448;-68
2022/03/10 05:34:13;;;;;;;22.23;10.80;;;;;;;;;;5077410;28;20968;-68
2022/03/10 05:36:41;;;;;;;16.30;8.90;;;;;;;;;;5077422;28;20455;-69
2022/03/10 05:39:08;;;;;;;21.77;10.70;;;;;;;;;;5077230;28;20491;-68
2022/03/10 05:41:35;;;;;;;17.27;11.20;;;;;;;;;;5077397;28;20451;-68
2022/03/10 05:44:02;;;;;;;16.80;10.40;;;;;;;;;;5076974;28;20941;-69
2022/03/10 05:46:29;;;;;;;16.83;9.13;;;;;;;;;;5077366;28;20458;-68
2022/03/10 05:48:58;;;;;;;19.73;10.93;;;;;;;;;;5076942;28;20490;-69
2022/03/10 05:51:25;;;;;;;17.53;9.17;;;;;;;;;;5077624;28;20458;-68
2022/03/10 05:53:52;;;;;;;19.87;9.57;;;;;;;;;;5076638;28;20455;-69
2022/03/10 05:56:19;;;;;;;12.97;10.60;;;;;;;;;;5077073;28;20443;-68
2022/03/10 05:58:46;;;;;;;17.20;9.83;;;;;;;;;;5077001;28;20491;-68
2022/03/10 06:01:14;;;;;;;13.97;9.07;;;;;;;;;;5076283;28;20462;-69
2022/03/10 06:03:42;;;;;;;19.30;8.83;;;;;;;;;;5076428;28;20459;-68
2022/03/10 06:06:12;;;;;;;18.50;9.10;;;;;;;;;;5076837;28;20469;-68
2022/03/10 06:08:39;;;;;;;14.00;9.60;;;;;;;;;;5076968;28;20971;-68
2022/03/10 06:11:07;;;;;;;18.20;8.97;;;;;;;;;;5077018;28;20987;-68
2022/03/10 06:13:34;;;;;;;23.23;10.97;;;;;;;;;;5076258;28;20460;-69
2022/03/10 06:16:03;;;;;;;14.83;8.97;;;;;;;;;;5077001;28;20444;-69
2022/03/10 06:18:31;;;;;;;13.80;9.17;;;;;;;;;;5075963;28;20999;-68
2022/03/10 06:20:58;;;;;;;21.07;11.20;;;;;;;;;;5076337;28;20539;-68
2022/03/10 06:23:27;;;;;;;19.63;11.80;;;;;;;;;;5076471;28;20473;-69
2022/03/10 06:25:54;;;;;;;24.43;12.53;;;;;;;;;;5076140;28;20958;-69
2022/03/10 06:28:21;;;;;;;17.20;10.67;;;;;;;;;;5076127;28;20548;-68
2022/03/10 06:30:48;;;;;;;23.00;12.80;;;;;;;;;;5076647;28;20957;-68
2022/03/10 06:33:15;;;;;;;21.97;12.17;;;;;;;;;;5075777;28;20455;-69
2022/03/10 06:35:42;;;;;;;15.17;9.70;;;;;;;;;;5075804;28;20451;-68
2022/03/10 06:38:09;;;;;;;12.50;7.60;;;;;;;;;;5076028;28;20845;-69
2022/03/10 06:40:38;;;;;;;10.90;7.87;;;;;;;;;;5076448;28;20459;-69
2022/03/10 06:43:05;;;;;;;14.70;9.47;;;;;;;;;;5076775;28;20462;-69
2022/03/10 06:45:32;;;;;;;12.20;8.63;;;;;;;;;;5076200;28;20833;-69
2022/03/10 06:48:00;;;;;;;21.87;9.37;;;;;;;;;;5076616;28;20479;-69
2022/03/10 06:50:28;;;;;;;13.63;8.87;;;;;;;;;;5076510;28;20447;-69
2022/03/10 06:52:56;;;;;;;16.23;9.53;;;;;;;;;;5076037;28;20464;-69
2022/03/10 06:55:23;;;;;;;12.87;10.30;;;;;;;;;;5076088;28;20470;-69
2022/03/10 06:57:52;;;;;;;14.10;10.90;;;;;;;;;;5076143;28;20575;-69
2022/03/10 07:00:20;;;;;;;14.10;10.70;;;;;;;;;;5076510;28;20459;-70
2022/03/10 07:02:47;;;;;;;17.27;11.00;;;;;;;;;;5075787;28;20483;-70
2022/03/10 07:05:14;;;;;;;17.90;11.73;;;;;;;;;;5075978;28;20455;-70
2022/03/10 07:07:41;;;;;;;13.90;10.10;;;;;;;;;;5076034;28;20848;-70
2022/03/10 07:10:09;;;;;;;15.37;10.13;;;;;;;;;;5075871;28;20465;-70
2022/03/10 07:12:36;;;;;;;12.67;10.30;;;;;;;;;;5075524;28;20493;-70
2022/03/10 07:15:05;;;;;;;11.00;8.97;;;;;;;;;;5075241;28;20451;-70
2022/03/10 07:17:32;;;;;;;10.73;8.93;;;;;;;;;;5076016;28;20471;-70
2022/03/10 07:19:59;;;;;;;12.77;11.13;;;;;;;;;;5079013;28;20451;-71
2022/03/10 07:22:27;;;;;;;17.00;11.70;;;;;;;;;;5093650;28;20455;-70
2022/03/10 07:24:54;;;;;;;24.40;9.10;;;;;;;;;;5093214;28;20834;-71
2022/03/10 07:27:21;;;;;;;13.10;9.80;;;;;;;;;;5093428;28;20474;-70
2022/03/10 07:29:49;;;;;;;14.77;10.00;;;;;;;;;;5092640;28;20449;-70
2022/03/10 07:32:17;;;;;;;9.93;7.93;;;;;;;;;;5093689;28;20458;-70
2022/03/10 07:34:47;;;;;;;9.50;7.87;;;;;;;;;;5093857;28;20944;-69
2022/03/10 07:37:15;;;;;;;43.60;30.77;;;;;;;;;;5094435;28;20499;-69
2022/03/10 07:39:42;;;;;;;11.00;8.77;;;;;;;;;;5094297;28;20524;-70
2022/03/10 07:42:09;;;;;;;10.00;6.60;;;;;;;;;;5094718;28;20458;-69
2022/03/10 07:44:37;;;;;;;11.63;7.40;;;;;;;;;;5093770;28;20454;-70
2022/03/10 07:47:04;;;;;;;10.53;6.60;;;;;;;;;;5094188;28;20474;-70
2022/03/10 07:49:39;;;;;;;14.53;11.20;;;;;;;;;;5131813;27;20577;-70
2022/03/10 07:52:07;;;;;;;12.07;8.10;;;;;;;;;;5131482;27;20823;-69
2022/03/10 07:54:34;;;;;;;13.63;8.53;;;;;;;;;;5131123;27;20519;-69
2022/03/10 07:57:02;;;;;;;14.83;8.13;;;;;;;;;;5131450;27;20469;-70
2022/03/10 07:59:29;;;;;;;15.20;8.77;;;;;;;;;;5131779;27;20813;-70
2022/03/10 08:01:56;;;;;;;11.63;8.30;;;;;;;;;;5131173;27;20460;-70
2022/03/10 08:04:23;;;;;;;12.40;8.77;;;;;;;;;;5131014;27;20477;-70
2022/03/10 08:06:52;;;;;;;15.50;9.37;;;;;;;;;;5131156;27;20452;-70
2022/03/10 08:09:20;;;;;;;12.20;8.17;;;;;;;;;;5130738;27;20492;-70
2022/03/10 08:11:47;;;;;;;14.47;7.67;;;;;;;;;;5130951;27;20507;-70
2022/03/10 08:14:14;;;;;;;18.90;8.80;;;;;;;;;;5131068;27;20453;-70
2022/03/10 08:16:42;;;;;;;14.17;8.63;;;;;;;;;;5130641;27;20448;-70
2022/03/10 08:19:10;;;;;;;13.00;7.90;;;;;;;;;;5130503;27;20452;-70
2022/03/10 08:21:37;;;;;;;14.00;7.77;;;;;;;;;;5130778;27;20460;-70
2022/03/10 08:24:06;;;;;;;11.33;8.10;;;;;;;;;;5130465;27;20469;-69
2022/03/10 08:26:33;;;;;;;11.33;7.90;;;;;;;;;;5130426;27;20801;-70
2022/03/10 08:29:00;;;;;;;14.40;8.53;;;;;;;;;;5130473;27;20480;-69
2022/03/10 08:31:28;;;;;;;10.37;6.97;;;;;;;;;;5130674;27;20498;-70
2022/03/10 08:33:55;;;;;;;11.83;8.40;;;;;;;;;;5130307;27;20453;-69
2022/03/10 08:36:22;;;;;;;17.37;10.37;;;;;;;;;;5130489;27;20449;-69
2022/03/10 08:38:49;;;;;;;14.43;8.10;;;;;;;;;;5130394;27;20472;-70
2022/03/10 08:41:18;;;;;;;10.27;7.13;;;;;;;;;;5130443;27;20946;-70
2022/03/10 08:43:45;;;;;;;11.67;9.30;;;;;;;;;;5129761;27;20457;-71
2022/03/10 08:46:12;;;;;;;13.40;10.63;;;;;;;;;;5130153;27;20937;-70
2022/03/10 08:48:40;;;;;;;15.77;7.50;;;;;;;;;;5130166;27;20488;-70
2022/03/10 08:51:07;;;;;;;10.90;6.73;;;;;;;;;;5130349;27;20444;-70
2022/03/10 08:53:36;;;;;;;13.50;8.77;;;;;;;;;;5130581;27;20488;-71
2022/03/10 08:56:03;;;;;;;13.00;9.00;;;;;;;;;;5130930;27;20461;-70
2022/03/10 08:58:32;;;;;;;17.57;10.93;;;;;;;;;;5131174;27;20996;-70
2022/03/10 09:00:59;;;;;;;14.47;7.20;;;;;;;;;;5117039;27;20457;-70
2022/03/10 09:03:26;;;;;;;13.10;8.17;;;;;;;;;;5116850;28;20854;-70
2022/03/10 09:05:53;;;;;;;15.90;8.77;;;;;;;;;;5116142;28;20449;-71
2022/03/10 09:08:21;;;;;;;11.53;7.87;;;;;;;;;;5114954;28;20489;-71
2022/03/10 09:10:48;;;;;;;17.43;8.87;;;;;;;;;;5114621;28;20523;-71
2022/03/10 09:13:15;;;;;;;18.47;10.33;;;;;;;;;;5114952;28;20457;-71
2022/03/10 09:15:45;;;;;;;16.40;9.13;;;;;;;;;;5114541;28;20457;-70
2022/03/10 09:18:13;;;;;;;20.70;10.40;;;;;;;;;;5114526;28;20465;-70
2022/03/10 09:20:40;;;;;;;10.63;6.97;;;;;;;;;;5114549;28;20492;-71
2022/03/10 09:23:07;;;;;;;27.13;15.60;;;;;;;;;;5115054;28;20453;-70
2022/03/10 09:25:35;;;;;;;39.13;20.23;;;;;;;;;;5113109;28;20465;-71
2022/03/10 09:28:02;;;;;;;20.20;12.83;;;;;;;;;;5114235;28;20493;-71
2022/03/10 09:30:29;;;;;;;15.97;10.47;;;;;;;;;;5114556;28;20457;-70
2022/03/10 09:32:58;;;;;;;20.77;14.00;;;;;;;;;;5114108;28;20453;-70
2022/03/10 09:35:25;;;;;;;12.20;8.60;;;;;;;;;;5114331;28;20484;-71
2022/03/10 09:37:53;;;;;;;11.00;8.20;;;;;;;;;;5114149;28;20474;-71
2022/03/10 09:40:20;;;;;;;16.77;11.60;;;;;;;;;;5114251;28;20511;-70
2022/03/10 09:42:48;;;;;;;12.80;8.50;;;;;;;;;;5114178;28;20445;-70
2022/03/10 09:45:16;;;;;;;14.47;8.77;;;;;;;;;;5114007;28;20446;-71
2022/03/10 09:47:44;;;;;;;14.33;8.57;;;;;;;;;;5113785;28;20489;-70
2022/03/10 09:50:14;;;;;;;12.20;9.10;;;;;;;;;;5114028;28;20489;-70
2022/03/10 09:52:42;;;;;;;9.70;7.23;;;;;;;;;;5113619;28;20445;-70
2022/03/10 09:55:10;;;;;;;9.93;7.97;;;;;;;;;;5113909;27;20457;-71
2022/03/10 09:57:39;;;;;;;11.13;8.83;;;;;;;;;;5113858;28;20476;-71
2022/03/10 10:00:08;;;;;;;14.13;9.30;;;;;;;;;;5114062;28;20824;-71
2022/03/10 10:02:35;;;;;;;11.23;8.13;;;;;;;;;;5113377;28;20457;-71
2022/03/10 10:05:02;;;;;;;13.47;9.87;;;;;;;;;;5113585;28;20468;-70
2022/03/10 10:07:30;;;;;;;15.37;9.70;;;;;;;;;;5113786;28;20838;-71
2022/03/10 10:09:58;;;;;;;13.43;9.67;;;;;;;;;;5113501;28;20478;-71
2022/03/10 10:12:27;;;;;;;11.07;8.30;;;;;;;;;;5112685;28;20575;-71
2022/03/10 10:14:54;;;;;;;12.97;9.33;;;;;;;;;;5113248;28;20482;-70
2022/03/10 10:17:29;;;;;;;10.77;8.60;;;;;;;;;;5113384;28;20473;-71
2022/03/10 10:19:57;;;;;;;14.67;9.70;;;;;;;;;;5113425;28;20451;-70
2022/03/10 10:22:25;;;;;;;11.93;8.00;;;;;;;;;;5113524;28;20449;-70
2022/03/10 10:24:54;;;;;;;11.50;8.50;;;;;;;;;;5112970;28;20446;-70
2022/03/10 10:27:23;;;;;;;17.83;9.27;;;;;;;;;;5113578;28;20465;-70
2022/03/10 10:29:51;;;;;;;13.10;9.80;;;;;;;;;;5113051;28;20496;-70
2022/03/10 10:32:33;;;;;;;12.30;9.80;;;;;;;;;;5113333;28;20968;-70
2022/03/10 10:35:01;;;;;;;11.70;8.60;;;;;;;;;;5110821;28;20457;-70
2022/03/10 10:37:28;;;;;;;14.40;10.00;;;;;;;;;;5113046;28;20883;-70
2022/03/10 10:39:58;;;;;;;10.63;8.30;;;;;;;;;;5113050;28;20456;-70
2022/03/10 10:42:29;;;;;;;16.77;10.43;;;;;;;;;;5113099;28;20445;-70
2022/03/10 10:44:57;;;;;;;14.00;9.37;;;;;;;;;;5112842;28;20441;-70
2022/03/10 10:47:26;;;;;;;15.13;10.63;;;;;;;;;;5112844;28;20469;-70
2022/03/10 10:50:00;;;;;;;12.90;9.07;;;;;;;;;;5112767;28;20492;-70
2022/03/10 10:52:37;;;;;;;13.83;9.27;;;;;;;;;;5113263;28;20457;-70
2022/03/10 10:55:06;;;;;;;14.70;8.17;;;;;;;;;;5113755;28;21004;-70
2022/03/10 10:57:35;;;;;;;12.17;9.73;;;;;;;;;;5114304;28;20492;-70
2022/03/10 11:00:09;;;;;;;12.93;9.63;;;;;;;;;;5114227;28;20946;-70
2022/03/10 11:02:40;;;;;;;13.03;9.33;;;;;;;;;;5113555;28;20465;-70
2022/03/10 11:05:09;;;;;;;14.00;9.90;;;;;;;;;;5113772;28;20825;-70
2022/03/10 11:07:37;;;;;;;15.67;8.40;;;;;;;;;;5113889;28;20531;-70
2022/03/10 11:10:07;;;;;;;17.77;10.73;;;;;;;;;;5114075;28;20855;-70
2022/03/10 11:12:37;;;;;;;21.87;9.30;;;;;;;;;;5114161;28;20548;-70
2022/03/10 11:15:06;;;;;;;17.83;9.93;;;;;;;;;;5113686;28;20454;-70
2022/03/10 11:17:34;;;;;;;14.03;8.50;;;;;;;;;;5113635;28;20469;-70
2022/03/10 11:20:02;;;;;;;23.83;14.50;;;;;;;;;;5113801;28;20548;-70
2022/03/10 11:22:33;;;;;;;15.00;9.07;;;;;;;;;;5111054;28;20962;-70
2022/03/10 11:25:11;;;;;;;10.67;7.60;;;;;;;;;;5112705;28;20458;-70
2022/03/10 11:27:40;;;;;;;11.90;8.67;;;;;;;;;;5113448;28;20473;-70
2022/03/10 11:30:07;;;;;;;12.43;9.17;;;;;;;;;;5113619;28;20489;-70
2022/03/10 11:32:35;;;;;;;11.63;8.90;;;;;;;;;;5113309;28;20485;-70
2022/03/10 11:35:03;;;;;;;13.30;10.30;;;;;;;;;;5110839;28;20942;-70
2022/03/10 11:37:36;;;;;;;11.13;8.13;;;;;;;;;;5111779;28;20966;-70
2022/03/10 11:40:05;;;;;;;14.90;10.40;;;;;;;;;;5112007;28;20441;-70
2022/03/10 11:42:34;;;;;;;15.63;8.17;;;;;;;;;;5112102;28;20473;-70
2022/03/10 11:45:08;;;;;;;14.67;10.27;;;;;;;;;;5111866;28;20999;-70
2022/03/10 11:47:36;;;;;;;11.80;8.70;;;;;;;;;;5112024;28;21066;-70
2022/03/10 11:50:22;;;;;;;13.97;10.23;;;;;;;;;;5112070;28;20551;-70
2022/03/10 11:52:52;;;;;;;16.20;9.60;;;;;;;;;;5111831;28;20453;-70
2022/03/10 11:55:19;;;;;;;13.47;10.40;;;;;;;;;;5111897;28;20540;-70
2022/03/10 11:58:04;;;;;;;13.77;9.97;;;;;;;;;;5112070;28;20472;-70
2022/03/10 12:00:47;;;;;;;12.23;8.50;;;;;;;;;;5112283;28;20737;-70
2022/03/10 12:03:19;;;;;;;11.67;8.77;;;;;;;;;;5111712;28;20934;-70
2022/03/10 12:05:55;;;;;;;17.70;10.30;;;;;;;;;;5111524;28;20489;-70
2022/03/10 12:08:22;;;;;;;14.93;9.43;;;;;;;;;;5111909;28;20553;-69
2022/03/10 12:10:50;;;;;;;13.13;10.30;;;;;;;;;;5111575;28;20485;-70
2022/03/10 12:13:31;;;;;;;11.87;8.50;;;;;;;;;;5112043;28;20957;-70
2022/03/10 12:15:58;;;;;;;12.57;8.90;;;;;;;;;;5111557;28;20472;-70
2022/03/10 12:18:26;;;;;;;13.50;9.80;;;;;;;;;;5111763;28;20873;-70
2022/03/10 12:20:57;;;;;;;11.83;8.17;;;;;;;;;;5111572;28;20519;-70
2022/03/10 12:23:28;;;;;;;11.87;9.00;;;;;;;;;;5111810;28;20528;-70
2022/03/10 12:25:58;;;;;;;15.13;8.40;;;;;;;;;;5111542;28;20453;-70
2022/03/10 12:28:34;;;;;;;12.40;9.33;;;;;;;;;;5111555;28;20473;-70
2022/03/10 12:31:09;;;;;;;13.10;8.73;;;;;;;;;;5111326;28;20489;-70
2022/03/10 12:33:36;;;;;;;11.50;7.73;;;;;;;;;;5111547;28;20488;-70
2022/03/10 12:36:04;;;;;;;12.00;8.40;;;;;;;;;;5114671;28;20523;-70
2022/03/10 12:38:35;;;;;;;12.53;9.20;;;;;;;;;;5115518;28;20466;-70
2022/03/10 12:41:03;;;;;;;13.37;9.10;;;;;;;;;;5115485;27;20809;-70
2022/03/10 12:43:30;;;;;;;11.33;8.10;;;;;;;;;;5115057;28;20493;-70
2022/03/10 12:45:59;;;;;;;10.67;7.93;;;;;;;;;;5115298;28;20460;-70
2022/03/10 12:48:28;;;;;;;13.53;9.00;;;;;;;;;;5115214;27;20989;-70
2022/03/10 12:50:55;;;;;;;10.10;7.37;;;;;;;;;;5115301;28;20481;-70
2022/03/10 12:53:22;;;;;;;11.93;8.43;;;;;;;;;;5115074;28;20449;-70
2022/03/10 12:55:55;;;;;;;12.90;8.63;;;;;;;;;;5114849;28;20482;-70
2022/03/10 12:58:29;;;;;;;11.27;8.67;;;;;;;;;;5115092;28;20497;-70
2022/03/10 13:01:04;;;;;;;12.63;8.33;;;;;;;;;;5114955;28;20534;-70
2022/03/10 13:03:36;;;;;;;11.53;6.87;;;;;;;;;;5114524;28;20546;-70
2022/03/10 13:06:03;;;;;;;9.73;7.30;;;;;;;;;;5114700;28;20453;-70
2022/03/10 13:08:30;;;;;;;9.47;6.90;;;;;;;;;;5114813;28;20495;-70
2022/03/10 13:11:00;;;;;;;9.43;7.23;;;;;;;;;;5096093;28;20554;-70
2022/03/10 13:13:30;;;;;;;11.97;7.00;;;;;;;;;;5095471;28;20461;-70
2022/03/10 13:16:01;;;;;;;10.63;7.40;;;;;;;;;;5095686;28;20450;-70
2022/03/10 13:18:28;;;;;;;9.33;6.33;;;;;;;;;;5095702;28;20478;-70
2022/03/10 13:20:59;;;;;;;13.30;8.00;;;;;;;;;;5095648;28;20447;-70
2022/03/10 13:23:28;;;;;;;5.67;4.20;;;;;;;;;;5095701;28;20473;-70
2022/03/10 13:25:55;;;;;;;10.13;7.40;;;;;;;;;;5095448;28;20458;-70
2022/03/10 13:28:24;;;;;;;10.57;6.80;;;;;;;;;;5095583;28;20501;-70
2022/03/10 13:30:51;;;;;;;12.33;7.73;;;;;;;;;;5095316;28;20478;-70
2022/03/10 13:33:20;;;;;;;7.90;5.47;;;;;;;;;;5095595;28;20458;-70
2022/03/10 13:35:49;;;;;;;13.03;7.87;;;;;;;;;;5095260;28;20450;-70
2022/03/10 13:38:18;;;;;;;16.00;9.70;;;;;;;;;;5095381;28;20463;-70
2022/03/10 13:40:47;;;;;;;8.57;6.43;;;;;;;;;;5095064;28;20482;-70
2022/03/10 13:43:21;;;;;;;7.77;6.27;;;;;;;;;;5095597;28;20512;-70
2022/03/10 13:45:49;;;;;;;10.30;7.07;;;;;;;;;;5094551;28;20451;-70
2022/03/10 13:48:19;;;;;;;8.23;5.70;;;;;;;;;;5095137;28;20888;-70
2022/03/10 13:50:46;;;;;;;7.97;5.20;;;;;;;;;;5095212;28;21011;-70
2022/03/10 13:53:14;;;;;;;6.90;4.90;;;;;;;;;;5095024;28;20449;-70
2022/03/10 13:55:49;;;;;;;9.10;6.40;;;;;;;;;;5094881;28;21010;-70
2022/03/10 13:58:16;;;;;;;10.70;4.60;;;;;;;;;;5094989;28;20462;-70
2022/03/10 14:00:45;;;;;;;7.97;5.90;;;;;;;;;;5095005;28;20458;-70
2022/03/10 14:03:14;;;;;;;11.23;5.60;;;;;;;;;;5094707;28;20504;-70
2022/03/10 14:05:45;;;;;;;5.97;4.60;;;;;;;;;;5094738;28;20453;-70
2022/03/10 14:08:14;;;;;;;9.23;4.77;;;;;;;;;;5094608;28;20562;-70
2022/03/10 14:10:41;;;;;;;9.63;4.77;;;;;;;;;;5094607;28;20482;-70
2022/03/10 14:13:10;;;;;;;12.33;5.10;;;;;;;;;;5094780;28;20974;-70
2022/03/10 14:15:40;;;;;;;13.33;5.00;;;;;;;;;;5094225;28;20446;-70
2022/03/10 14:18:08;;;;;;;8.80;5.37;;;;;;;;;;5094829;28;20532;-70
2022/03/10 14:20:42;;;;;;;8.77;5.10;;;;;;;;;;5093413;27;20885;-70
2022/03/10 14:23:09;;;;;;;9.60;4.43;;;;;;;;;;5093909;28;20450;-70
2022/03/10 14:25:40;;;;;;;9.67;5.63;;;;;;;;;;5092206;28;20468;-70
2022/03/10 14:28:09;;;;;;;8.37;5.20;;;;;;;;;;5093695;28;20959;-70
2022/03/10 14:30:37;;;;;;;6.70;4.40;;;;;;;;;;5094140;28;20531;-70
2022/03/10 14:33:05;;;;;;;9.53;5.47;;;;;;;;;;5094383;28;20989;-69
2022/03/10 14:35:32;;;;;;;3.93;3.37;;;;;;;;;;5093996;28;20880;-70
2022/03/10 14:37:59;;;;;;;7.07;4.43;;;;;;;;;;5094114;28;20475;-70
2022/03/10 14:40:26;;;;;;;8.67;4.40;;;;;;;;;;5093989;27;20475;-70